Time;durP1;ratioP1;P1;durP2;ratioP2;P2;SDS_P1;SDS_P2;PMS_P1;PMS_P2;Temp;Humidity;BMP_temperature;BMP_pressure;BME280_temperature;BME280_humidity;BME280_pressure;Samples;Min_cycle;Max_cycle;Signal;HPM_P1;HPM_P2
2021/08/17 00:02:04;;;;;;;2.20;0.80;;;14.50;99.90;;;15.20;67.92;94542.66;5008912;28;20322;-71
2021/08/17 00:04:33;;;;;;;1.30;0.47;;;13.60;99.90;;;15.16;67.92;94543.47;5002336;28;20215;-71
2021/08/17 00:06:59;;;;;;;0.70;0.60;;;14.40;99.90;;;15.14;68.06;94546.41;5007171;28;20208;-71
2021/08/17 00:09:25;;;;;;;0.53;0.50;;;14.10;99.90;;;15.00;68.29;94541.97;5008547;28;20954;-72
2021/08/17 00:11:50;;;;;;;1.27;1.10;;;13.90;99.90;;;14.87;68.29;94548.72;5007638;28;20199;-73
2021/08/17 00:14:16;;;;;;;1.93;1.40;;;13.80;99.90;;;14.84;68.19;94557.28;5006895;28;20310;-72
2021/08/17 00:16:44;;;;;;;1.93;1.60;;;14.70;99.90;;;14.89;68.44;94555.38;5009218;28;20208;-72
2021/08/17 00:19:13;;;;;;;3.70;1.80;;;14.80;99.90;;;14.89;68.44;94562.56;5002961;28;20225;-72
2021/08/17 00:21:39;;;;;;;4.30;2.10;;;14.40;99.90;;;14.85;68.53;94554.31;5015292;28;20214;-73
2021/08/17 00:24:07;;;;;;;2.70;2.30;;;13.70;99.90;;;14.86;68.63;94550.59;4999879;28;20238;-71
2021/08/17 00:26:33;;;;;;;3.93;3.10;;;14.40;99.90;;;14.82;68.65;94560.19;4990014;28;20538;-72
2021/08/17 00:29:01;;;;;;;4.37;3.50;;;;;;;14.81;68.68;94568.47;4986236;28;20201;-71
2021/08/17 00:31:27;;;;;;;7.53;4.30;;;13.80;99.90;;;14.80;68.86;94572.22;5008696;28;20618;-72
2021/08/17 00:33:53;;;;;;;6.80;5.23;;;13.70;99.90;;;14.76;68.84;94573.84;4991697;28;20265;-72
2021/08/17 00:36:19;;;;;;;9.53;6.50;;;14.30;99.90;;;14.61;69.08;94572.03;5007128;28;20205;-71
2021/08/17 00:38:45;;;;;;;11.23;7.60;;;13.80;99.90;;;14.57;68.37;94572.84;4989671;28;20204;-72
2021/08/17 00:41:11;;;;;;;11.80;8.20;;;12.60;99.90;;;14.50;69.20;94575.00;4990871;28;20193;-72
2021/08/17 00:43:38;;;;;;;14.10;9.10;;;13.50;99.90;;;14.50;68.98;94578.47;4988397;28;20259;-71
2021/08/17 00:46:07;;;;;;;13.13;9.10;;;13.50;99.90;;;14.45;69.21;94580.34;4997328;28;20205;-72
2021/08/17 00:48:37;;;;;;;14.60;10.17;;;13.40;99.90;;;14.36;69.01;94569.44;5023031;28;21070;-72
2021/08/17 00:51:09;;;;;;;16.23;11.57;;;13.30;99.90;;;14.32;69.47;94576.34;4974064;28;20205;-72
2021/08/17 00:53:36;;;;;;;16.07;11.00;;;14.10;99.90;;;14.40;69.52;94583.03;4992406;28;20267;-73
2021/08/17 00:56:05;;;;;;;14.87;11.00;;;13.30;99.90;;;14.36;69.65;94588.13;5007447;28;20232;-73
2021/08/17 00:58:31;;;;;;;17.97;12.10;;;13.30;99.90;;;14.32;69.57;94581.69;4992353;28;20204;-73
2021/08/17 01:00:58;;;;;;;18.27;11.93;;;13.30;99.90;;;14.34;69.55;94583.03;5004969;28;20907;-73
2021/08/17 01:03:26;;;;;;;15.80;10.93;;;13.90;99.90;;;14.30;69.50;94591.84;5007336;28;20208;-74
2021/08/17 01:05:52;;;;;;;15.63;10.57;;;13.20;99.90;;;14.31;69.62;94591.56;4999626;28;20553;-73
2021/08/17 01:08:18;;;;;;;14.73;10.17;;;13.20;99.90;;;14.34;69.67;94569.72;5007995;28;20677;-73
2021/08/17 01:10:49;;;;;;;12.50;9.40;;;13.30;99.90;;;14.32;69.76;94573.69;5006289;28;20296;-73
2021/08/17 01:13:23;;;;;;;11.97;9.13;;;13.20;99.90;;;14.36;69.97;94586.25;5007621;28;20201;-73
2021/08/17 01:15:51;;;;;;;13.83;10.40;;;13.20;99.90;;;14.27;70.00;94579.03;5012709;28;20199;-73
2021/08/17 01:18:17;;;;;;;15.60;10.50;;;14.10;99.90;;;14.25;69.97;94576.63;4996243;28;20204;-73
2021/08/17 01:20:49;;;;;;;14.90;10.30;;;13.20;99.90;;;14.25;70.05;94578.50;5007650;28;20193;-73
2021/08/17 01:23:24;;;;;;;15.77;10.23;;;13.10;99.90;;;14.29;69.99;94582.25;4995181;28;20207;-73
2021/08/17 01:25:50;;;;;;;14.10;10.00;;;13.10;99.90;;;14.18;70.20;94570.78;5006533;28;20223;-73
2021/08/17 01:28:16;;;;;;;17.03;11.23;;;13.10;99.90;;;14.10;70.29;94574.00;5002970;28;20586;-72
2021/08/17 01:30:42;;;;;;;15.23;11.00;;;13.00;99.90;;;14.16;70.35;94572.94;4991527;28;20350;-73
2021/08/17 01:33:08;;;;;;;17.90;11.93;;;14.10;99.90;;;14.09;70.44;94575.09;5006898;28;20210;-73
2021/08/17 01:35:34;;;;;;;20.13;12.57;;;13.00;99.90;;;14.03;70.29;94583.34;5006441;28;20197;-73
2021/08/17 01:38:04;;;;;;;18.53;11.20;;;13.00;99.90;;;14.05;69.94;94597.19;4988207;28;20292;-73
2021/08/17 01:40:31;;;;;;;16.63;10.93;;;13.10;99.90;;;14.17;70.61;94589.75;4988196;28;20594;-73
2021/08/17 01:42:57;;;;;;;19.60;12.80;;;12.90;99.90;;;14.10;70.73;94589.22;4989958;28;20215;-73
2021/08/17 01:45:25;;;;;;;20.20;12.73;;;13.90;99.90;;;14.04;70.54;94583.06;5007359;28;21044;-73
2021/08/17 01:47:55;;;;;;;20.63;13.83;;;13.60;99.90;;;14.05;70.83;94592.66;5004403;28;20189;-72
2021/08/17 01:50:23;;;;;;;22.60;14.43;;;13.80;99.90;;;14.09;70.71;94609.72;5013445;28;20204;-72
2021/08/17 01:52:49;;;;;;;20.47;13.50;;;13.00;99.90;;;14.06;70.67;94607.59;4983519;28;20200;-72
2021/08/17 01:55:15;;;;;;;19.87;13.70;;;13.00;99.90;;;14.04;70.65;94607.06;4990619;28;20208;-72
2021/08/17 01:57:41;;;;;;;23.33;13.97;;;13.70;99.90;;;14.00;71.10;94599.88;5004666;28;20311;-72
2021/08/17 02:00:10;;;;;;;24.63;15.13;;;12.90;99.90;;;13.88;70.81;94608.13;4991001;28;20201;-72
2021/08/17 02:02:37;;;;;;;24.30;14.93;;;12.70;99.90;;;13.91;70.87;94604.13;4989571;28;20288;-72
2021/08/17 02:05:04;;;;;;;22.83;14.87;;;12.80;99.90;;;13.88;70.88;94608.94;4992383;28;20232;-72
2021/08/17 02:07:30;;;;;;;27.97;17.17;;;12.70;99.90;;;13.78;71.02;94594.81;5004774;28;20210;-72
2021/08/17 02:09:56;;;;;;;23.37;15.57;;;12.70;99.90;;;13.78;71.23;94600.16;4989881;28;20212;-73
2021/08/17 02:12:22;;;;;;;25.73;16.63;;;12.70;99.90;;;13.81;71.11;94604.94;5006837;28;20678;-72
2021/08/17 02:14:48;;;;;;;25.60;16.77;;;12.70;99.90;;;13.90;71.35;94606.00;5008587;28;20205;-72
2021/08/17 02:17:14;;;;;;;26.07;16.50;;;12.70;99.90;;;13.92;71.28;94605.75;5000933;28;20211;-72
2021/08/17 02:19:40;;;;;;;25.33;15.80;;;12.80;99.90;;;13.86;71.29;94604.97;5002557;28;20220;-73
2021/08/17 02:22:06;;;;;;;25.47;16.73;;;12.80;99.90;;;13.85;71.50;94609.47;4973265;28;20223;-72
2021/08/17 02:24:32;;;;;;;24.70;16.50;;;12.80;99.90;;;13.79;71.51;94607.09;5005725;28;20899;-72
2021/08/17 02:27:00;;;;;;;27.03;17.20;;;12.80;99.90;;;13.84;71.58;94617.72;4988211;28;20201;-73
2021/08/17 02:29:28;;;;;;;25.93;16.50;;;12.70;99.90;;;13.78;71.78;94608.94;4988900;28;20431;-72
2021/08/17 02:31:54;;;;;;;30.37;18.13;;;12.70;99.90;;;13.83;71.80;94614.25;4989802;28;20217;-73
2021/08/17 02:34:22;;;;;;;27.63;17.77;;;12.70;99.90;;;13.85;71.78;94606.81;4995417;28;20216;-73
2021/08/17 02:36:48;;;;;;;26.80;17.97;;;12.80;99.90;;;13.82;71.41;94603.88;5005978;28;20200;-73
2021/08/17 02:39:16;;;;;;;30.07;18.47;;;12.80;99.90;;;13.82;71.89;94618.00;4985235;28;20232;-72
2021/08/17 02:41:42;;;;;;;29.60;19.00;;;12.80;99.90;;;13.83;71.61;94605.50;4991056;28;20546;-73
2021/08/17 02:44:08;;;;;;;26.33;17.13;;;12.80;99.90;;;13.81;72.11;94610.28;5001871;28;20229;-73
2021/08/17 02:46:34;;;;;;;27.23;17.00;;;12.80;99.90;;;13.80;71.73;94604.13;4987080;28;20205;-73
2021/08/17 02:49:00;;;;;;;25.67;18.27;;;12.70;99.90;;;13.75;72.06;94601.50;5002655;28;20210;-73
2021/08/17 02:51:26;;;;;;;33.27;18.50;;;12.70;99.90;;;13.72;72.02;94603.88;5007029;28;20555;-73
2021/08/17 02:53:52;;;;;;;28.10;18.80;;;12.60;99.90;;;13.66;71.87;94599.63;4971090;28;20212;-73
2021/08/17 02:56:18;;;;;;;31.03;18.63;;;12.60;99.90;;;13.60;71.72;94608.66;4992533;28;20270;-73
2021/08/17 02:58:44;;;;;;;26.17;17.67;;;12.50;99.90;;;13.62;72.30;94612.66;4996994;28;20211;-73
2021/08/17 03:01:11;;;;;;;30.13;20.03;;;12.60;99.90;;;13.64;71.89;94609.72;5003677;28;20203;-73
2021/08/17 03:03:37;;;;;;;28.20;20.07;;;12.50;99.90;;;13.55;72.12;94611.31;4987098;28;20212;-73
2021/08/17 03:06:05;;;;;;;32.90;20.43;;;12.50;99.90;;;13.58;72.18;94602.81;5001248;28;20187;-72
2021/08/17 03:08:31;;;;;;;37.07;21.10;;;12.50;99.90;;;13.56;72.45;94604.94;4987467;28;20210;-73
2021/08/17 03:10:57;;;;;;;34.70;21.87;;;12.50;99.90;;;13.50;72.05;94601.47;5007016;28;20204;-72
2021/08/17 03:13:22;;;;;;;35.20;21.67;;;12.50;99.90;;;13.59;72.41;94604.41;5004301;28;20201;-73
2021/08/17 03:15:48;;;;;;;33.73;20.60;;;12.50;99.90;;;13.60;72.34;94603.31;4999834;28;20211;-73
2021/08/17 03:18:15;;;;;;;31.87;19.43;;;12.50;99.90;;;13.41;72.67;94608.38;5001516;28;20659;-72
2021/08/17 03:20:41;;;;;;;30.43;18.80;;;12.40;99.90;;;13.45;72.59;94612.13;4974700;28;20536;-73
2021/08/17 03:23:09;;;;;;;32.70;20.17;;;12.40;99.90;;;13.44;72.31;94612.38;5004530;28;20224;-73
2021/08/17 03:25:35;;;;;;;33.27;19.97;;;12.40;99.90;;;13.31;72.51;94614.50;4988997;28;20295;-73
2021/08/17 03:28:01;;;;;;;33.47;20.00;;;12.30;99.90;;;13.27;72.60;94617.94;5004191;28;20206;-73
2021/08/17 03:30:30;;;;;;;35.17;20.83;;;11.90;99.90;;;13.27;72.71;94613.41;4969790;28;20190;-73
2021/08/17 03:32:58;;;;;;;31.13;20.23;;;12.20;99.90;;;13.26;72.95;94622.44;5005221;28;20827;-73
2021/08/17 03:35:25;;;;;;;33.73;20.73;;;12.40;99.90;;;13.24;72.52;94605.94;4989743;28;20197;-73
2021/08/17 03:37:53;;;;;;;34.87;21.03;;;12.90;99.90;;;13.13;72.86;94603.50;5011218;28;20205;-73
2021/08/17 03:40:22;;;;;;;33.53;20.67;;;11.80;99.90;;;13.10;72.90;94606.72;5005089;28;20308;-73
2021/08/17 03:42:52;;;;;;;34.47;20.23;;;12.20;99.90;;;12.99;72.74;94618.38;5008213;28;20232;-73
2021/08/17 03:45:20;;;;;;;35.70;21.53;;;12.00;99.90;;;13.09;72.93;94627.22;5022432;28;20591;-73
2021/08/17 03:47:46;;;;;;;38.33;21.03;;;12.00;99.90;;;12.97;72.33;94610.63;5008752;28;20190;-73
2021/08/17 03:50:14;;;;;;;39.77;21.80;;;11.90;99.90;;;12.93;72.53;94622.84;4989293;28;20210;-73
2021/08/17 03:52:41;;;;;;;33.83;21.00;;;12.10;99.90;;;12.93;72.71;94612.22;4993489;28;20254;-72
2021/08/17 03:55:08;;;;;;;40.90;21.60;;;11.90;99.90;;;12.90;72.90;94626.03;5005858;28;20190;-73
2021/08/17 03:57:36;;;;;;;37.70;22.13;;;11.90;99.90;;;12.92;72.97;94605.31;5004381;28;20261;-73
2021/08/17 04:00:09;;;;;;;34.27;21.37;;;11.90;99.90;;;12.90;72.70;94620.72;4990254;28;20222;-73
2021/08/17 04:02:35;;;;;;;36.90;22.03;;;11.90;99.90;;;12.82;73.29;94618.56;5010586;28;20699;-73
2021/08/17 04:05:06;;;;;;;38.07;22.73;;;11.80;99.90;;;12.78;73.35;94618.28;4985203;28;20234;-73
2021/08/17 04:07:32;;;;;;;35.87;20.80;;;12.10;99.90;;;12.91;73.27;94618.88;5018317;28;20699;-72
2021/08/17 04:09:58;;;;;;;38.80;22.83;;;11.80;99.90;;;12.93;73.37;94624.75;5007322;28;20887;-73
2021/08/17 04:12:27;;;;;;;34.00;21.03;;;12.20;99.90;;;13.02;73.19;94620.50;5008568;28;20236;-73
2021/08/17 04:14:52;;;;;;;35.20;22.20;;;11.90;99.90;;;13.03;73.08;94614.91;5005638;28;20576;-73
2021/08/17 04:17:18;;;;;;;37.40;22.93;;;12.00;99.90;;;13.05;73.43;94619.97;5010270;28;20209;-73
2021/08/17 04:19:44;;;;;;;34.77;21.77;;;12.00;99.90;;;13.05;73.25;94618.13;4992367;28;20585;-73
2021/08/17 04:22:10;;;;;;;34.90;21.63;;;12.00;99.90;;;13.01;73.58;94624.22;5010261;28;20194;-73
2021/08/17 04:24:36;;;;;;;34.97;21.97;;;12.00;99.90;;;12.98;73.36;94608.78;5007624;28;20231;-73
2021/08/17 04:27:05;;;;;;;35.13;21.70;;;12.00;99.90;;;12.90;73.77;94611.94;5007692;28;20202;-73
2021/08/17 04:29:36;;;;;;;32.47;20.33;;;11.90;99.90;;;12.90;73.89;94623.38;5008332;28;20267;-73
2021/08/17 04:32:04;;;;;;;36.80;21.33;;;11.90;99.90;;;12.84;73.84;94621.78;4998849;28;20222;-73
2021/08/17 04:34:32;;;;;;;33.27;21.10;;;12.20;99.90;;;12.89;74.02;94629.78;5008008;28;20213;-73
2021/08/17 04:37:00;;;;;;;33.50;21.63;;;11.90;99.90;;;12.83;73.61;94630.81;4985501;28;20325;-72
2021/08/17 04:39:26;;;;;;;37.57;22.03;;;12.10;99.90;;;12.86;73.64;94632.94;4973656;28;20688;-73
2021/08/17 04:41:52;;;;;;;35.57;21.60;;;11.80;99.90;;;12.94;73.64;94628.97;5002106;28;20203;-73
2021/08/17 04:44:21;;;;;;;34.27;20.93;;;11.90;99.90;;;13.04;73.88;94635.16;4990909;28;20228;-73
2021/08/17 04:46:47;;;;;;;35.57;21.23;;;11.90;99.90;;;13.01;73.85;94625.03;4999543;28;20196;-73
2021/08/17 04:49:13;;;;;;;32.13;20.23;;;12.00;99.90;;;13.01;73.77;94641.00;4990099;28;20259;-73
2021/08/17 04:51:40;;;;;;;33.97;21.20;;;12.00;99.90;;;13.10;74.11;94642.09;5003994;28;20187;-73
2021/08/17 04:54:06;;;;;;;30.07;19.97;;;12.00;99.90;;;13.11;73.90;94638.41;5008319;28;20208;-73
2021/08/17 04:56:31;;;;;;;28.80;19.33;;;12.10;99.90;;;13.08;74.19;94635.44;5004315;28;20207;-72
2021/08/17 04:59:00;;;;;;;28.53;19.33;;;12.10;99.90;;;13.13;74.14;94648.75;5002870;28;20347;-73
2021/08/17 05:01:30;;;;;;;28.13;18.10;;;12.40;99.90;;;13.18;73.98;94643.47;5004114;28;20647;-73
2021/08/17 05:03:57;;;;;;;28.80;18.70;;;12.20;99.90;;;13.10;73.95;94630.66;5008194;28;20213;-73
2021/08/17 05:06:23;;;;;;;28.30;18.47;;;12.10;99.90;;;13.05;74.02;94638.59;5003117;28;20846;-73
2021/08/17 05:08:49;;;;;;;32.37;20.23;;;12.10;99.90;;;13.13;74.14;94633.59;4989078;28;20204;-73
2021/08/17 05:11:15;;;;;;;31.20;19.73;;;11.70;99.90;;;13.11;73.94;94633.06;4989569;28;20193;-73
2021/08/17 05:13:41;;;;;;;29.80;18.27;;;12.10;99.90;;;13.10;74.44;94643.97;5003310;28;20569;-72
2021/08/17 05:16:08;;;;;;;28.87;18.17;;;12.10;99.90;;;13.09;74.18;94634.41;5006881;28;20202;-72
2021/08/17 05:18:35;;;;;;;31.23;19.63;;;12.10;99.90;;;13.16;74.15;94632.28;5006690;28;20564;-72
2021/08/17 05:21:03;;;;;;;29.37;18.50;;;12.10;99.90;;;13.17;74.56;94633.88;4987448;28;20304;-72
2021/08/17 05:23:29;;;;;;;28.03;18.13;;;12.20;99.90;;;13.16;74.53;94650.94;4985370;28;20736;-73
2021/08/17 05:25:56;;;;;;;29.13;19.43;;;12.20;99.90;;;13.19;74.35;94635.25;5005544;28;20239;-73
2021/08/17 05:28:23;;;;;;;29.10;19.33;;;11.50;99.90;;;13.17;74.28;94639.19;4986945;28;20279;-72
2021/08/17 05:30:50;;;;;;;32.07;19.80;;;12.20;99.90;;;13.28;74.56;94628.31;4990808;28;20233;-73
2021/08/17 05:33:18;;;;;;;28.43;18.27;;;13.20;99.90;;;13.39;74.30;94641.66;5005702;28;20913;-73
2021/08/17 05:35:44;;;;;;;29.07;19.53;;;12.30;99.90;;;13.41;74.58;94632.34;4990873;28;20200;-72
2021/08/17 05:38:13;;;;;;;27.27;18.20;;;12.40;99.90;;;13.49;74.74;94641.69;4968658;28;20654;-73
2021/08/17 05:40:40;;;;;;;30.13;18.93;;;12.80;99.90;;;13.47;74.58;94644.59;5004054;28;20229;-73
2021/08/17 05:43:06;;;;;;;29.03;18.93;;;12.70;99.90;;;13.60;74.91;94651.28;4993818;28;20748;-72
2021/08/17 05:45:33;;;;;;;30.90;19.20;;;12.80;99.90;;;13.57;74.85;94641.16;5006308;28;20910;-72
2021/08/17 05:48:02;;;;;;;34.70;19.60;;;12.60;99.90;;;13.62;74.87;94655.28;4982494;28;20601;-73
2021/08/17 05:50:31;;;;;;;34.00;19.97;;;13.10;99.90;;;13.67;74.92;94655.28;4988776;28;20194;-73
2021/08/17 05:53:00;;;;;;;35.10;20.70;;;12.50;99.90;;;13.67;75.09;94657.16;4999484;28;20185;-72
2021/08/17 05:55:26;;;;;;;31.50;20.10;;;12.70;99.90;;;13.66;75.19;94668.88;5003950;28;20198;-73
2021/08/17 05:57:59;;;;;;;30.97;20.23;;;12.80;99.90;;;13.77;75.05;94681.94;5006025;28;20200;-73
2021/08/17 06:00:26;;;;;;;32.27;20.30;;;12.80;99.90;;;13.81;75.07;94672.34;4988951;28;20242;-73
2021/08/17 06:02:53;;;;;;;35.10;20.50;;;12.90;99.90;;;13.86;74.90;94666.25;5005658;28;20284;-73
2021/08/17 06:05:19;;;;;;;32.37;19.27;;;13.00;99.90;;;13.91;75.02;94670.75;5007948;28;20244;-73
2021/08/17 06:07:52;;;;;;;32.33;20.00;;;13.00;99.90;;;13.95;75.43;94669.97;5005572;28;20669;-74
2021/08/17 06:10:19;;;;;;;30.87;20.67;;;13.10;99.90;;;14.09;75.38;94670.25;4996097;28;20187;-73
2021/08/17 06:12:47;;;;;;;30.10;18.97;;;13.20;99.90;;;14.15;75.37;94671.84;5005448;28;20669;-72
2021/08/17 06:15:17;;;;;;;31.70;20.67;;;13.30;99.90;;;14.19;75.14;94679.03;4982991;28;20200;-73
2021/08/17 06:17:45;;;;;;;28.67;18.63;;;13.30;99.90;;;14.25;75.40;94675.28;5002240;28;20207;-74
2021/08/17 06:20:11;;;;;;;28.47;18.70;;;13.40;99.90;;;14.33;75.42;94674.81;4987505;28;20212;-74
2021/08/17 06:22:37;;;;;;;25.67;17.87;;;13.50;99.90;;;14.31;75.36;94679.56;4989398;28;20618;-74
2021/08/17 06:25:07;;;;;;;27.43;18.53;;;13.50;99.90;;;14.29;75.61;94695.03;5001705;28;20318;-73
2021/08/17 06:27:37;;;;;;;26.93;17.83;;;13.40;99.90;;;14.44;75.60;94699.56;4990678;28;20208;-73
2021/08/17 06:30:05;;;;;;;24.17;17.53;;;13.60;99.90;;;14.49;75.51;94696.91;4989865;28;20278;-73
2021/08/17 06:32:31;;;;;;;27.80;18.13;;;13.60;99.90;;;14.46;75.62;94694.78;4992004;28;20223;-73
2021/08/17 06:34:57;;;;;;;29.43;18.43;;;13.70;99.90;;;14.56;75.43;94707.31;5006054;28;20208;-73
2021/08/17 06:37:28;;;;;;;30.07;18.57;;;13.70;99.90;;;14.60;75.55;94689.69;5006062;28;20778;-73
2021/08/17 06:39:54;;;;;;;26.63;17.77;;;13.70;99.90;;;14.54;75.73;94685.44;5000287;28;20206;-74
2021/08/17 06:42:20;;;;;;;24.97;18.10;;;13.80;99.90;;;14.55;75.41;94692.34;5005229;28;20755;-73
2021/08/17 06:44:46;;;;;;;24.23;17.77;;;13.70;99.90;;;14.64;75.40;94696.09;4969662;28;20224;-73
2021/08/17 06:47:12;;;;;;;25.57;17.73;;;13.80;99.90;;;14.94;75.59;94700.56;4988922;28;20555;-72
2021/08/17 06:49:37;;;;;;;26.53;17.67;;;14.00;99.90;;;14.98;75.59;94691.72;5004674;28;20296;-72
2021/08/17 06:52:05;;;;;;;23.97;16.07;;;14.10;99.90;;;15.17;75.52;94706.09;5006370;28;20204;-72
2021/08/17 06:54:36;;;;;;;25.10;17.37;;;14.20;99.90;;;15.20;75.72;94708.22;5000868;28;20210;-73
2021/08/17 06:57:03;;;;;;;24.53;17.00;;;14.30;99.90;;;15.43;75.50;94708.66;5010517;28;20574;-73
2021/08/17 06:59:33;;;;;;;25.38;19.02;;;14.40;99.90;;;15.41;75.52;94712.38;5004485;28;20442;-73
2021/08/17 07:01:59;;;;;;;22.90;16.73;;;14.60;99.90;;;15.70;75.46;94717.09;4999876;28;20196;-74
2021/08/17 07:04:25;;;;;;;22.23;16.53;;;14.80;99.90;;;15.90;75.42;94700.94;5001979;28;20601;-74
2021/08/17 07:06:51;;;;;;;24.83;16.50;;;15.30;99.90;;;15.79;75.87;94686.81;4988044;28;20190;-73
2021/08/17 07:09:16;;;;;;;22.23;17.20;;;15.00;99.90;;;15.93;75.64;94700.38;4989530;28;20188;-74
2021/08/17 07:11:42;;;;;;;20.93;15.33;;;15.10;99.90;;;16.23;75.57;94708.19;4997128;28;20207;-74
2021/08/17 07:14:11;;;;;;;22.50;16.57;;;15.30;99.90;;;16.55;75.50;94715.72;5006805;28;20196;-74
2021/08/17 07:16:37;;;;;;;22.33;16.33;;;15.70;99.90;;;17.08;75.31;94723.75;4974318;28;20203;-74
2021/08/17 07:19:04;;;;;;;21.23;15.27;;;16.10;99.90;;;17.52;75.87;94748.44;4992101;28;20307;-73
2021/08/17 07:21:30;;;;;;;21.27;15.20;;;16.50;99.90;;;18.40;75.19;94734.38;4984327;28;20284;-73
2021/08/17 07:23:56;;;;;;;18.67;13.90;;;17.40;99.90;;;18.74;75.23;94683.88;5008424;28;20195;-74
2021/08/17 07:26:22;;;;;;;18.47;14.40;;;18.00;99.90;;;19.06;75.23;94719.88;5013120;28;20198;-73
2021/08/17 07:28:48;;;;;;;18.90;14.73;;;18.30;99.90;;;20.20;74.80;94762.75;5007505;28;20347;-74
2021/08/17 07:31:14;;;;;;;16.73;13.50;;;19.10;99.90;;;22.19;74.53;94801.41;5012087;28;20742;-74
2021/08/17 07:33:40;;;;;;;14.63;12.80;;;21.00;99.90;;;24.28;74.17;94657.59;5007677;28;20783;-74
2021/08/17 07:36:09;;;;;;;14.60;12.77;;;23.40;99.90;;;24.56;74.24;94720.19;5002873;28;20208;-74
2021/08/17 07:38:35;;;;;;;16.87;13.00;;;24.00;99.90;;;24.87;73.82;94746.91;5006932;28;20661;-74
2021/08/17 07:41:01;;;;;;;13.87;11.67;;;26.30;99.90;;;25.80;73.35;94668.22;4998096;28;20197;-72
2021/08/17 07:43:29;;;;;;;15.07;12.30;;;25.70;99.90;;;24.81;73.26;94686.59;4989992;28;20193;-74
2021/08/17 07:45:58;;;;;;;14.47;12.33;;;25.00;99.90;;;24.43;73.26;94667.84;4971751;28;20233;-73
2021/08/17 07:48:24;;;;;;;14.63;13.00;;;25.30;99.90;;;24.51;72.61;94740.13;4991140;28;20193;-73
2021/08/17 07:50:51;;;;;;;13.23;11.70;;;24.90;99.90;;;23.93;72.43;94670.59;4985726;28;20212;-73
2021/08/17 07:53:17;;;;;;;13.97;12.07;;;24.50;99.90;;;24.26;72.26;94686.16;5006837;28;20271;-72
2021/08/17 07:55:46;;;;;;;13.93;12.37;;;24.70;99.90;;;24.31;71.74;94689.44;5006550;28;20292;-72
2021/08/17 07:58:11;;;;;;;17.10;13.43;;;24.70;99.90;;;23.09;71.91;94691.53;4988421;28;20220;-72
2021/08/17 08:00:37;;;;;;;13.77;12.37;;;23.60;99.90;;;22.54;71.36;94683.31;5006919;28;20576;-72
2021/08/17 08:03:03;;;;;;;13.83;12.00;;;22.90;99.90;;;23.04;71.46;94743.88;5004852;28;20243;-72
2021/08/17 08:05:29;;;;;;;14.47;11.97;;;23.00;99.90;;;24.40;70.72;94768.00;5005169;28;20301;-72
2021/08/17 08:07:55;;;;;;;14.50;12.73;;;24.00;99.90;;;24.52;70.56;94662.31;4993602;28;20209;-72
2021/08/17 08:10:21;;;;;;;13.53;11.67;;;24.60;99.90;;;24.60;70.62;94668.81;4988619;28;20236;-72
2021/08/17 08:12:47;;;;;;;13.60;12.20;;;25.00;99.90;;;24.41;70.54;94675.50;5000383;28;20192;-71
2021/08/17 08:15:13;;;;;;;14.33;12.10;;;24.90;99.90;;;24.52;70.01;94719.25;5004829;28;20201;-73
2021/08/17 08:17:39;;;;;;;13.63;12.10;;;25.10;99.90;;;25.56;69.75;94814.06;5004295;28;20699;-72
2021/08/17 08:20:06;;;;;;;13.37;11.83;;;25.60;99.90;;;27.51;68.99;94784.34;5004718;28;20206;-74
2021/08/17 08:22:32;;;;;;;13.90;12.00;;;27.70;99.90;;;29.43;68.45;94724.78;4982933;28;20225;-74
2021/08/17 08:25:02;;;;;;;11.83;10.53;;;29.90;99.90;;;29.99;68.40;94722.22;5012300;28;20223;-73
2021/08/17 08:27:28;;;;;;;13.47;12.10;;;30.90;96.80;;;29.24;68.10;94647.53;5007402;28;20675;-73
2021/08/17 08:29:54;;;;;;;13.00;11.70;;;30.50;94.10;;;30.27;67.45;94735.53;4977520;28;20181;-73
2021/08/17 08:32:23;;;;;;;11.97;10.80;;;31.40;92.50;;;30.09;67.10;94698.91;5010319;28;20663;-73
2021/08/17 08:34:52;;;;;;;13.27;11.87;;;31.50;91.80;;;30.75;66.56;94788.66;4993213;28;20205;-74
2021/08/17 08:37:18;;;;;;;12.70;11.43;;;31.70;90.20;;;32.10;66.03;94696.94;4991038;28;20201;-73
2021/08/17 08:39:44;;;;;;;12.27;11.10;;;33.00;83.70;;;33.18;65.41;94670.41;5010290;28;20203;-73
2021/08/17 08:42:11;;;;;;;12.27;11.07;;;34.60;76.10;;;33.07;64.36;94746.53;5005481;28;20232;-73
2021/08/17 08:44:37;;;;;;;11.63;10.57;;;34.90;76.70;;;33.97;63.82;94777.44;5006773;28;20670;-73
2021/08/17 08:47:04;;;;;;;12.90;11.60;;;36.10;74.60;;;34.68;63.22;94736.16;4988045;28;20185;-73
2021/08/17 08:49:32;;;;;;;12.35;11.10;;;36.80;68.50;;;35.03;62.51;94730.50;5020206;28;20509;-73
2021/08/17 08:52:00;;;;;;;11.70;10.63;;;37.40;65.30;;;35.89;61.74;94787.66;4990734;28;20203;-73
2021/08/17 08:54:27;;;;;;;12.55;11.38;;;38.50;63.60;;;36.05;61.29;94731.91;5023479;28;20189;-74
2021/08/17 08:56:54;;;;;;;12.15;10.95;;;39.10;58.90;;;35.43;61.20;94657.44;5002798;28;20644;-73
2021/08/17 08:59:19;;;;;;;11.77;10.57;;;38.80;58.40;;;35.73;60.24;94634.78;5005844;28;20855;-74
2021/08/17 09:01:49;;;;;;;11.98;10.80;;;38.90;58.90;;;35.46;59.58;94745.69;4989666;28;20255;-74
2021/08/17 09:04:15;;;;;;;12.70;11.50;;;38.40;60.30;;;36.44;58.98;94734.34;5011511;28;20307;-73
2021/08/17 09:06:53;;;;;;;12.55;11.25;;;39.20;56.90;;;35.27;58.48;94602.78;5022813;28;20284;-73
2021/08/17 09:09:24;;;;;;;12.70;11.60;;;38.40;56.20;;;32.30;58.41;94619.41;4989847;28;20194;-72
2021/08/17 09:11:53;;;;;;;13.32;12.05;;;35.80;58.50;;;29.75;57.59;94601.53;5010408;28;20878;-72
2021/08/17 09:14:27;;;;;;;14.07;12.57;;;33.10;62.80;;;27.71;57.93;94578.19;5004526;28;20223;-71
2021/08/17 09:17:07;;;;;;;14.93;12.73;;;30.70;72.30;;;27.46;57.17;94702.91;5007603;28;20251;-71
2021/08/17 09:19:37;;;;;;;14.80;13.13;;;29.60;81.20;;;26.61;57.37;94610.03;4999687;28;20661;-71
2021/08/17 09:22:15;;;;;;;15.37;13.30;;;28.50;84.90;;;24.45;57.33;94616.00;4990661;28;20579;-72
2021/08/17 09:24:44;;;;;;;13.93;12.43;;;26.30;90.90;;;23.38;57.13;94669.91;5006400;28;20209;-72
2021/08/17 09:27:26;;;;;;;15.47;13.73;;;24.80;94.40;;;22.97;57.24;94673.25;5002523;28;20193;-73
2021/08/17 09:30:12;;;;;;;14.90;13.17;;;23.80;98.30;;;23.87;56.80;94733.41;5002117;28;20728;-72
2021/08/17 09:32:57;;;;;;;17.77;13.90;;;24.00;99.90;;;25.13;57.03;94779.19;4982215;28;20271;-74
2021/08/17 09:35:25;;;;;;;14.43;12.80;;;24.80;99.60;;;27.72;56.87;94835.09;5006227;28;20737;-73
2021/08/17 09:38:17;;;;;;;14.97;13.30;;;27.70;99.50;;;28.25;56.59;94736.34;4981162;28;20235;-73
2021/08/17 09:40:45;;;;;;;14.00;12.17;;;29.60;97.00;;;28.67;55.92;94692.88;4991693;28;20196;-74
2021/08/17 09:43:17;;;;;;;14.27;12.87;;;31.00;93.00;;;30.41;56.17;94716.63;4991206;28;20213;-74
2021/08/17 09:45:46;;;;;;;14.47;12.90;;;33.30;91.90;;;32.01;55.76;94661.56;5020728;28;20212;-73
2021/08/17 09:48:16;;;;;;;13.13;11.77;;;34.70;88.30;;;33.15;55.45;94797.63;5003228;28;20185;-73
2021/08/17 09:50:44;;;;;;;12.10;10.90;;;34.80;80.00;;;35.22;54.53;94748.59;5002231;28;20189;-73
2021/08/17 09:53:20;;;;;;;12.07;10.87;;;37.30;70.70;;;36.67;54.01;94670.97;4988149;28;20548;-71
2021/08/17 09:55:51;;;;;;;12.35;11.10;;;38.90;63.50;;;36.24;54.02;94548.31;5012141;28;20185;-71
2021/08/17 09:58:31;;;;;;;12.55;11.32;;;39.40;61.40;;;33.60;53.33;94593.47;5005813;28;20679;-71
2021/08/17 10:01:00;;;;;;;13.53;12.23;;;37.10;63.80;;;31.36;53.57;94590.16;5001452;28;20672;-73
2021/08/17 10:03:28;;;;;;;13.53;12.13;;;34.90;66.60;;;29.18;53.46;94616.22;5006541;28;20193;-73
2021/08/17 10:05:57;;;;;;;14.00;12.60;;;32.40;70.00;;;28.59;52.96;94639.25;5000676;28;20217;-73
2021/08/17 10:08:27;;;;;;;14.70;12.93;;;31.00;74.00;;;27.48;52.93;94599.84;5005596;28;20192;-73
2021/08/17 10:10:55;;;;;;;14.30;12.90;;;29.60;78.90;;;25.78;52.96;94569.22;5004268;28;20245;-73